Bookmark and Share
Track history (hours):
 

Miedwie

Last reported at 2014-Jan-14 08:13 UTC. Time now 2014-Apr-19 22:16 UTC.
Position N 18°27' W 062°49'.
Warning: this ship's position is months out of date.

Length 190 m; draft 10.6 m.

Type: Cargo ship. MMSI: 311018300.

NotesDate/timePositionNaut miles runAvg speedWind from/ knotsBaromVisibWave heightAir tempDewpointWater temp
2014-Jan-14 08:13N 18°27' W 062°49'  
2014-Jan-09 03:16N 27°23' W 083°02'811.7
2014-Jan-09 02:33N 27°31' W 083°01'7 6.8
2014-Jan-09 01:33N 27°36' W 082°56'1211.7
2014-Jan-09 00:34N 27°36' W 082°42'1110.7
2014-Jan-08 23:33N 27°43' W 082°33'10 9.8
2014-Jan-08 22:33N 27°51' W 082°27'4 4.3
2014-Jan-08 21:33N 27°55' W 082°25'0 0.0
2014-Jan-08 20:33N 27°55' W 082°25'0 0.0
2014-Jan-08 19:33N 27°55' W 082°25'0 0.0
2014-Jan-08 18:33N 27°55' W 082°25'0 0.0
2014-Jan-08 17:30N 27°55' W 082°25'0 0.0
2014-Jan-08 16:33N 27°55' W 082°25'0 0.0
2014-Jan-08 15:33N 27°55' W 082°25'0 0.0
2014-Jan-08 14:33N 27°55' W 082°25'0 0.0
2014-Jan-08 13:33N 27°55' W 082°25'0 0.0
2014-Jan-08 12:33N 27°55' W 082°25'0 0.0
2014-Jan-08 11:30N 27°55' W 082°25'0 0.0
2014-Jan-08 10:33N 27°55' W 082°25'0 0.0
2014-Jan-08 09:33N 27°55' W 082°25'0 0.0
2014-Jan-08 08:33N 27°55' W 082°25'0 0.0
2014-Jan-08 07:33N 27°55' W 082°25'0 0.0
2014-Jan-08 06:33N 27°55' W 082°25'0 0.0
2014-Jan-08 05:33N 27°55' W 082°25'0 0.0
2014-Jan-08 04:33N 27°55' W 082°25'0 0.0
2014-Jan-08 03:33N 27°55' W 082°25'1 0.9
2014-Jan-08 02:33N 27°54' W 082°26'1 0.5
2014-Jan-08 01:32N 27°54' W 082°25'0 0.0
2014-Jan-08 00:32N 27°54' W 082°25'0 0.0
2014-Jan-07 23:32N 27°54' W 082°25'0 0.0
2014-Jan-07 22:32N 27°54' W 082°25'0 0.0
2014-Jan-07 21:32N 27°54' W 082°25'0 0.0
2014-Jan-07 20:32N 27°54' W 082°25'0 0.0
2014-Jan-07 19:32N 27°54' W 082°25'0 0.0
2014-Jan-07 18:32N 27°54' W 082°25'0 0.0
2014-Jan-07 17:29N 27°54' W 082°25'0 0.0
2014-Jan-07 16:29N 27°54' W 082°25'0 0.0
2014-Jan-07 15:32N 27°54' W 082°25'0 0.2
2014-Jan-07 14:33N 27°54' W 082°25'4 3.7
2014-Jan-07 13:33N 27°51' W 082°27'3 0.9
2014-Jan-07 10:28N 27°51' W 082°24'0 0.0
2014-Jan-07 09:31N 27°51' W 082°24'0 0.0
2014-Jan-07 08:31N 27°51' W 082°24'0 0.0
2014-Jan-07 07:31N 27°51' W 082°24'0 0.0
2014-Jan-07 06:28N 27°51' W 082°24'0 0.0
2014-Jan-07 05:31N 27°51' W 082°24'0 0.0
2014-Jan-07 04:28N 27°51' W 082°24'0 0.0
2014-Jan-07 03:31N 27°51' W 082°24'0 0.0
2014-Jan-07 02:31N 27°51' W 082°24'0 0.0
2014-Jan-07 01:31N 27°51' W 082°24'0 0.0
2014-Jan-07 00:34N 27°51' W 082°24'0 0.0
2014-Jan-06 23:34N 27°51' W 082°24'0 0.0
2014-Jan-06 22:31N 27°51' W 082°24'0 0.0
2014-Jan-06 21:34N 27°51' W 082°24'0 0.0
2014-Jan-06 20:31N 27°51' W 082°24'0 0.0
2014-Jan-06 19:28N 27°51' W 082°24'0 0.0
2014-Jan-06 18:28N 27°51' W 082°24'0 0.0
2014-Jan-06 17:28N 27°51' W 082°24'0 0.0
2014-Jan-06 16:34N 27°51' W 082°24'0 0.0
2014-Jan-06 15:31N 27°51' W 082°24'0 0.0
2014-Jan-06 14:31N 27°51' W 082°24'0 0.0
2014-Jan-06 13:34N 27°51' W 082°24'0 0.0
2014-Jan-06 12:34N 27°51' W 082°24'0 0.0
2014-Jan-06 11:34N 27°51' W 082°24'0 0.0
2014-Jan-06 10:34N 27°51' W 082°24'0 0.0
2014-Jan-06 09:34N 27°51' W 082°24'0 0.0
2014-Jan-06 08:34N 27°51' W 082°24'0 0.0
2014-Jan-06 07:34N 27°51' W 082°24'0 0.0
2014-Jan-06 06:34N 27°51' W 082°24'0 0.0
2014-Jan-06 05:31N 27°51' W 082°24'0 0.0
2014-Jan-06 04:34N 27°51' W 082°24'0 0.0
2014-Jan-06 03:31N 27°51' W 082°24'0 0.0
2014-Jan-06 02:34N 27°51' W 082°24'0 0.0
2014-Jan-06 01:34N 27°51' W 082°24'0 0.0
2014-Jan-06 00:34N 27°51' W 082°24'0 0.0
2014-Jan-05 23:34N 27°51' W 082°24'0 0.0
2014-Jan-05 22:28N 27°51' W 082°24'0 0.0
2014-Jan-05 21:34N 27°51' W 082°24'0 0.0
2014-Jan-05 20:34N 27°51' W 082°24'0 0.0
2014-Jan-05 19:34N 27°51' W 082°24'0 0.0
2014-Jan-05 18:34N 27°51' W 082°24'0 0.0
2014-Jan-05 17:34N 27°51' W 082°24'0 0.0
2014-Jan-05 16:34N 27°51' W 082°24'0 0.0
2014-Jan-05 15:34N 27°51' W 082°24'0 0.0
2014-Jan-05 14:34N 27°51' W 082°24'1 0.5
2014-Jan-05 12:33N 27°51' W 082°25'9 9.2
2014-Jan-05 11:33N 27°44' W 082°32'  

Dump ship's entire track history

sailing weather and tide predictions

Miedwie — C6XP5 — position and weather